Time;durP1;ratioP1;P1;durP2;ratioP2;P2;SDS_P1;SDS_P2;PMS_P1;PMS_P2;Temp;Humidity;BMP_temperature;BMP_pressure;BME280_temperature;BME280_humidity;BME280_pressure;Samples;Min_cycle;Max_cycle;Signal;HPM_P1;HPM_P2
2022/07/27 00:00:30;;;;;;;58.55;49.20;;;24.30;53.30;;;;;;4980812;27;100447;-69
2022/07/27 00:02:56;;;;;;;59.13;49.50;;;24.30;53.30;;;;;;4991474;27;96481;-69
2022/07/27 00:05:22;;;;;;;59.78;49.53;;;24.30;53.30;;;;;;4992587;27;95864;-69
2022/07/27 00:07:48;;;;;;;61.75;49.90;;;24.20;53.30;;;;;;4994468;27;100437;-69
2022/07/27 00:10:14;;;;;;;59.85;49.35;;;24.20;53.30;;;;;;4962771;27;95915;-69
2022/07/27 00:12:40;;;;;;;59.35;49.47;;;24.20;53.30;;;;;;4980045;27;96297;-69
2022/07/27 00:15:06;;;;;;;58.95;49.50;;;24.20;53.40;;;;;;4981077;27;98062;-69
2022/07/27 00:17:32;;;;;;;59.95;49.53;;;24.20;53.50;;;;;;4966527;27;96329;-69
2022/07/27 00:19:58;;;;;;;59.33;49.35;;;24.20;53.50;;;;;;4998818;27;99210;-69
2022/07/27 00:22:23;;;;;;;59.35;49.45;;;24.20;53.50;;;;;;4994537;27;95362;-69
2022/07/27 00:24:50;;;;;;;59.78;49.60;;;24.20;53.60;;;;;;4982498;27;96474;-69
2022/07/27 00:27:15;;;;;;;61.25;49.33;;;24.10;53.70;;;;;;5002045;27;96617;-69
2022/07/27 00:29:41;;;;;;;59.15;49.55;;;24.20;53.70;;;;;;4972861;27;95401;-69
2022/07/27 00:32:07;;;;;;;58.70;49.40;;;24.10;53.70;;;;;;5009039;27;96425;-69
2022/07/27 00:34:33;;;;;;;59.20;49.33;;;24.10;53.70;;;;;;4998401;27;95004;-69
2022/07/27 00:36:59;;;;;;;59.10;49.15;;;24.10;53.70;;;;;;4970880;27;97183;-69
2022/07/27 00:39:25;;;;;;;58.17;49.15;;;24.10;54.40;;;;;;4986891;27;98992;-70
2022/07/27 00:41:50;;;;;;;60.35;49.42;;;24.10;53.90;;;;;;4984262;27;95504;-69
2022/07/27 00:44:30;;;;;;;60.63;49.55;;;24.10;53.90;;;;;;4974145;27;99937;-69
2022/07/27 00:46:56;;;;;;;58.38;49.38;;;24.10;53.90;;;;;;4994060;27;98762;-69
2022/07/27 00:49:23;;;;;;;58.35;49.25;;;24.10;53.90;;;;;;5000502;27;96175;-69
2022/07/27 00:51:49;;;;;;;58.70;49.45;;;24.10;53.90;;;;;;4995922;27;94848;-69
2022/07/27 00:54:16;;;;;;;58.72;49.65;;;24.10;54.00;;;;;;4982851;27;95590;-69
2022/07/27 00:56:42;;;;;;;58.65;49.33;;;24.00;54.00;;;;;;4985575;27;95535;-69
2022/07/27 00:59:10;;;;;;;58.75;49.15;;;24.10;54.00;;;;;;4993526;27;95731;-69
2022/07/27 01:01:35;;;;;;;58.90;49.40;;;24.10;54.00;;;;;;5003502;27;100234;-69
2022/07/27 01:04:01;;;;;;;58.97;49.35;;;24.00;54.00;;;;;;4977526;27;95529;-69
2022/07/27 01:06:27;;;;;;;58.25;49.22;;;24.00;54.10;;;;;;4976324;27;96387;-69
2022/07/27 01:11:39;;;;;;;58.63;49.42;;;24.00;54.20;;;;;;5004450;27;101412;-70
2022/07/27 01:14:06;;;;;;;59.33;49.45;;;24.00;54.30;;;;;;4991868;27;98518;-69
2022/07/27 01:16:32;;;;;;;59.08;49.35;;;24.00;54.20;;;;;;4974710;27;95392;-69
2022/07/27 01:18:58;;;;;;;59.35;49.22;;;24.00;54.20;;;;;;4999930;27;94527;-69
2022/07/27 01:21:23;;;;;;;59.50;49.40;;;24.00;54.30;;;;;;5005184;27;95579;-69
2022/07/27 01:23:49;;;;;;;58.45;49.20;;;23.90;54.40;;;;;;5006512;27;97086;-69
2022/07/27 01:26:15;;;;;;;58.35;49.45;;;23.90;54.30;;;;;;4990820;27;96988;-70
2022/07/27 01:28:45;;;;;;;59.08;49.55;;;23.90;54.30;;;;;;5003197;27;95012;-69
2022/07/27 01:31:10;;;;;;;59.42;49.35;;;23.90;54.30;;;;;;5009460;27;96020;-69
2022/07/27 01:33:36;;;;;;;58.28;49.35;;;23.90;54.40;;;;;;4997102;27;95820;-69
2022/07/27 01:36:02;;;;;;;58.33;49.38;;;23.90;54.50;;;;;;4980474;27;101976;-69
2022/07/27 01:38:28;;;;;;;59.20;49.35;;;23.90;54.50;;;;;;4988937;27;95011;-69
2022/07/27 01:40:54;;;;;;;58.28;49.10;;;23.90;54.50;;;;;;4971663;27;97802;-69
2022/07/27 01:43:20;;;;;;;58.42;49.38;;;23.90;54.50;;;;;;4994149;27;98047;-70
2022/07/27 01:45:46;;;;;;;59.08;49.42;;;23.90;54.40;;;;;;5002016;27;96363;-69
2022/07/27 01:48:12;;;;;;;57.78;49.33;;;23.90;54.50;;;;;;4986847;27;97721;-69
2022/07/27 01:50:38;;;;;;;58.17;49.33;;;23.90;54.50;;;;;;4993731;27;101482;-69
2022/07/27 01:53:04;;;;;;;59.10;49.25;;;23.90;54.50;;;;;;5002198;27;94911;-68
2022/07/27 01:55:30;;;;;;;58.35;49.20;;;23.80;54.60;;;;;;4974897;27;96942;-69
2022/07/27 01:57:55;;;;;;;58.97;49.35;;;23.80;54.60;;;;;;4991476;27;96440;-69
2022/07/27 02:00:21;;;;;;;58.40;49.35;;;23.80;54.60;;;;;;4993426;27;95641;-69
2022/07/27 02:02:47;;;;;;;58.35;49.22;;;23.80;54.70;;;;;;4978767;27;95682;-69
2022/07/27 02:05:12;;;;;;;60.40;49.25;;;23.80;54.70;;;;;;4989740;27;98399;-69
2022/07/27 02:07:39;;;;;;;59.38;49.65;;;23.80;54.60;;;;;;4989486;27;95490;-69
2022/07/27 02:10:06;;;;;;;58.30;49.33;;;23.90;54.60;;;;;;4989037;27;95540;-69
2022/07/27 02:12:35;;;;;;;58.70;49.33;;;23.80;54.50;;;;;;4994957;27;98749;-69
2022/07/27 02:15:14;;;;;;;58.13;49.33;;;23.80;54.70;;;;;;4966476;27;96584;-69
2022/07/27 02:17:41;;;;;;;58.42;49.35;;;23.80;54.70;;;;;;4991107;27;96200;-69
2022/07/27 02:20:08;;;;;;;59.63;49.15;;;23.80;54.70;;;;;;5008818;27;94734;-70
2022/07/27 02:22:34;;;;;;;58.15;49.15;;;23.70;54.60;;;;;;4979695;27;95800;-69
2022/07/27 02:25:00;;;;;;;57.83;49.22;;;23.70;54.70;;;;;;4995794;27;97571;-69
2022/07/27 02:27:26;;;;;;;57.97;49.30;;;23.80;54.80;;;;;;4994757;27;95841;-69
2022/07/27 02:29:52;;;;;;;58.30;49.35;;;23.70;54.80;;;;;;4999427;27;95056;-69
2022/07/27 02:32:18;;;;;;;57.60;48.95;;;23.70;54.80;;;;;;4998532;27;100019;-69
2022/07/27 02:34:44;;;;;;;57.80;49.22;;;23.70;54.80;;;;;;4988544;27;95088;-69
2022/07/27 02:37:10;;;;;;;57.95;49.20;;;23.70;54.80;;;;;;4980702;27;95865;-69
2022/07/27 02:39:36;;;;;;;58.55;49.15;;;23.70;54.80;;;;;;4994117;27;95437;-69
2022/07/27 02:42:02;;;;;;;58.72;49.13;;;23.70;54.90;;;;;;4988450;27;95190;-69
2022/07/27 02:44:28;;;;;;;59.85;49.53;;;23.70;54.90;;;;;;4976082;27;97768;-69
2022/07/27 02:46:54;;;;;;;57.85;49.20;;;23.70;54.80;;;;;;4991276;27;100152;-69
2022/07/27 02:49:20;;;;;;;57.92;49.03;;;23.70;55.20;;;;;;4998950;27;95388;-69
2022/07/27 02:51:50;;;;;;;58.30;49.05;;;23.70;54.80;;;;;;4992922;27;95396;-69
2022/07/27 02:54:20;;;;;;;58.30;49.10;;;23.70;54.90;;;;;;4982241;27;96966;-69
2022/07/27 02:56:47;;;;;;;58.40;48.97;;;23.70;54.90;;;;;;5010769;27;95371;-69
2022/07/27 02:59:13;;;;;;;58.67;49.05;;;23.70;54.90;;;;;;4998882;27;102128;-69
2022/07/27 03:01:39;;;;;;;58.78;49.50;;;23.70;55.00;;;;;;4991944;27;96019;-69
2022/07/27 03:04:05;;;;;;;58.63;49.35;;;23.60;54.90;;;;;;5012768;27;96331;-69
2022/07/27 03:06:30;;;;;;;57.85;49.15;;;23.60;55.00;;;;;;4992592;27;97835;-69
2022/07/27 03:08:56;;;;;;;58.47;49.25;;;23.60;55.00;;;;;;4994304;27;95499;-69
2022/07/27 03:11:22;;;;;;;57.92;49.17;;;23.60;55.00;;;;;;4972492;27;97877;-69
2022/07/27 03:13:47;;;;;;;58.40;49.15;;;23.70;55.10;;;;;;5009824;27;95600;-69
2022/07/27 03:16:13;;;;;;;58.95;49.05;;;23.60;55.00;;;;;;5011696;27;95943;-69
2022/07/27 03:18:39;;;;;;;58.78;49.25;;;23.60;55.10;;;;;;4989779;27;97952;-69
2022/07/27 03:21:05;;;;;;;58.25;49.10;;;23.60;55.00;;;;;;4989385;27;97198;-69
2022/07/27 03:23:31;;;;;;;59.45;49.15;;;23.60;55.10;;;;;;5000374;27;95248;-69
2022/07/27 03:25:57;;;;;;;57.70;49.17;;;23.60;55.10;;;;;;4986647;27;96171;-69
2022/07/27 03:28:22;;;;;;;58.20;49.22;;;23.60;55.10;;;;;;4996616;27;95049;-69
2022/07/27 03:30:48;;;;;;;57.60;48.95;;;23.60;55.10;;;;;;4995257;27;96425;-69
2022/07/27 03:33:14;;;;;;;58.45;49.25;;;23.60;55.20;;;;;;5001000;27;95651;-69
2022/07/27 03:35:39;;;;;;;57.60;48.95;;;23.50;55.20;;;;;;5000334;27;101955;-69
2022/07/27 03:38:05;;;;;;;58.75;49.15;;;23.50;55.30;;;;;;4986695;27;95443;-69
2022/07/27 03:40:32;;;;;;;57.95;49.17;;;23.50;55.30;;;;;;4975799;27;98096;-69
2022/07/27 03:42:58;;;;;;;58.03;49.03;;;23.50;55.30;;;;;;5008555;27;99318;-69
2022/07/27 03:45:24;;;;;;;58.40;49.20;;;23.50;55.30;;;;;;5001713;27;99130;-69
2022/07/27 03:47:49;;;;;;;58.53;49.22;;;23.50;55.40;;;;;;4989323;27;97959;-69
2022/07/27 03:50:15;;;;;;;58.25;49.28;;;23.50;55.40;;;;;;4994524;27;95403;-69
2022/07/27 03:52:41;;;;;;;58.13;49.05;;;23.50;55.40;;;;;;4997811;27;95698;-69
2022/07/27 03:55:07;;;;;;;57.83;49.10;;;23.50;55.40;;;;;;4994001;27;94942;-69
2022/07/27 03:57:32;;;;;;;58.13;48.95;;;23.50;55.30;;;;;;4987177;27;95460;-69
2022/07/27 03:59:58;;;;;;;57.67;48.95;;;23.50;55.30;;;;;;4993110;27;96991;-69
2022/07/27 04:02:24;;;;;;;57.67;49.25;;;23.50;55.40;;;;;;4972680;27;104887;-69
2022/07/27 04:04:50;;;;;;;58.05;49.17;;;23.50;55.40;;;;;;4965084;27;95233;-69
2022/07/27 04:07:15;;;;;;;59.47;49.25;;;23.50;55.40;;;;;;4976340;27;96115;-69
2022/07/27 04:09:41;;;;;;;58.08;49.13;;;23.50;55.30;;;;;;4993954;27;96755;-69
2022/07/27 04:12:07;;;;;;;57.63;49.08;;;23.50;55.40;;;;;;5009568;27;96017;-69
2022/07/27 04:14:32;;;;;;;57.42;48.97;;;23.40;55.50;;;;;;4992272;27;96809;-69
2022/07/27 04:16:58;;;;;;;59.15;48.90;;;23.50;55.50;;;;;;5005396;27;94413;-70
2022/07/27 04:19:24;;;;;;;57.47;49.00;;;23.40;55.50;;;;;;4991496;27;95465;-69
2022/07/27 04:21:49;;;;;;;59.13;49.05;;;23.40;55.50;;;;;;4993196;27;95388;-69
2022/07/27 04:24:15;;;;;;;58.50;49.35;;;23.40;56.10;;;;;;5005105;27;97646;-69
2022/07/27 04:26:41;;;;;;;60.05;49.67;;;23.40;55.40;;;;;;5004169;27;96163;-69
2022/07/27 04:29:06;;;;;;;61.47;49.85;;;23.40;55.40;;;;;;5001832;27;95567;-69
2022/07/27 04:31:32;;;;;;;61.60;50.10;;;23.40;55.50;;;;;;4987371;27;97057;-69
2022/07/27 04:33:58;;;;;;;70.22;50.97;;;23.40;55.50;;;;;;5009550;27;96027;-69
2022/07/27 04:36:23;;;;;;;64.10;50.95;;;23.40;55.60;;;;;;4993328;27;96146;-69
2022/07/27 04:38:49;;;;;;;67.80;51.65;;;23.40;55.70;;;;;;5009956;27;95343;-69
2022/07/27 04:41:15;;;;;;;72.50;51.97;;;23.40;55.60;;;;;;5000063;27;95398;-69
2022/07/27 04:43:40;;;;;;;70.85;51.85;;;23.40;55.70;;;;;;5002169;27;95359;-69
2022/07/27 04:46:06;;;;;;;72.35;52.08;;;23.30;55.70;;;;;;4964782;28;97831;-69
2022/07/27 04:48:33;;;;;;;67.00;51.97;;;23.40;55.70;;;;;;4995122;27;97424;-69
2022/07/27 04:50:59;;;;;;;68.68;51.90;;;23.40;55.80;;;;;;5006153;27;95966;-69
2022/07/27 04:53:25;;;;;;;68.45;51.80;;;23.30;55.80;;;;;;4989421;27;95394;-69
2022/07/27 04:55:51;;;;;;;70.50;52.08;;;23.30;55.80;;;;;;4989336;27;97294;-69
2022/07/27 04:58:17;;;;;;;69.57;52.20;;;23.30;56.50;;;;;;4996234;27;98567;-69
2022/07/27 05:00:43;;;;;;;66.38;51.75;;;23.30;55.90;;;;;;4998720;27;95044;-69
2022/07/27 05:03:09;;;;;;;70.40;52.60;;;23.30;55.90;;;;;;4999477;27;95035;-69
2022/07/27 05:05:34;;;;;;;67.78;51.92;;;23.30;56.00;;;;;;4991666;27;96619;-69
2022/07/27 05:08:01;;;;;;;68.63;52.40;;;23.30;55.90;;;;;;4996989;27;96179;-69
2022/07/27 05:10:29;;;;;;;72.20;52.35;;;23.30;55.90;;;;;;5004466;27;98511;-69
2022/07/27 05:12:55;;;;;;;67.47;51.38;;;23.30;56.00;;;;;;4999309;28;96143;-69
2022/07/27 05:15:20;;;;;;;67.57;51.55;;;23.30;56.00;;;;;;4980980;27;97045;-69
2022/07/27 05:17:46;;;;;;;66.95;52.35;;;23.30;55.90;;;;;;4981686;27;96971;-69
2022/07/27 05:20:13;;;;;;;68.10;51.55;;;23.30;56.00;;;;;;5006347;27;96915;-69
2022/07/27 05:22:39;;;;;;;67.90;51.80;;;23.30;56.00;;;;;;5002234;27;95541;-69
2022/07/27 05:25:05;;;;;;;69.70;52.40;;;23.30;56.00;;;;;;4968836;27;95445;-69
2022/07/27 05:27:31;;;;;;;67.93;51.72;;;23.30;56.00;;;;;;4992961;27;95889;-69
2022/07/27 05:29:56;;;;;;;67.75;51.65;;;23.30;55.90;;;;;;4999021;27;94879;-69
2022/07/27 05:32:22;;;;;;;64.70;51.33;;;23.30;55.80;;;;;;4993501;27;97833;-69
2022/07/27 05:34:48;;;;;;;68.68;52.08;;;23.30;55.80;;;;;;4987722;27;96301;-69
2022/07/27 05:37:14;;;;;;;67.65;51.65;;;23.30;55.80;;;;;;4998104;27;96089;-69
2022/07/27 05:39:41;;;;;;;65.82;51.47;;;23.40;55.70;;;;;;4990217;27;97918;-69
2022/07/27 05:42:07;;;;;;;64.28;51.58;;;23.40;55.90;;;;;;5001777;27;95422;-68
2022/07/27 05:44:33;;;;;;;63.63;51.38;;;23.40;55.90;;;;;;4991651;27;95410;-69
2022/07/27 05:46:59;;;;;;;63.60;50.95;;;23.30;55.70;;;;;;4988546;27;95470;-70
2022/07/27 05:49:25;;;;;;;66.82;51.08;;;23.40;55.60;;;;;;4988456;27;96247;-69
2022/07/27 05:51:50;;;;;;;66.88;50.95;;;23.40;55.60;;;;;;5003131;27;95211;-69
2022/07/27 05:54:17;;;;;;;64.93;50.85;;;23.40;56.00;;;;;;5000976;27;94738;-68
2022/07/27 05:56:43;;;;;;;62.97;50.83;;;23.40;55.30;;;;;;4996145;27;96135;-69
2022/07/27 05:59:09;;;;;;;61.63;50.30;;;23.50;55.30;;;;;;4989103;27;95067;-69
2022/07/27 06:01:35;;;;;;;61.85;50.45;;;23.50;55.20;;;;;;4987921;27;98329;-69
2022/07/27 06:04:01;;;;;;;63.67;50.65;;;23.50;55.20;;;;;;5015184;27;95304;-69
2022/07/27 06:09:18;;;;;;;61.25;50.55;;;23.50;55.20;;;;;;4988300;27;95337;-69
2022/07/27 06:11:44;;;;;;;60.97;50.22;;;23.50;55.30;;;;;;4992079;27;95148;-69
2022/07/27 06:14:10;;;;;;;64.93;50.67;;;23.50;55.20;;;;;;4987804;27;96246;-69
2022/07/27 06:16:35;;;;;;;63.45;50.72;;;23.50;55.30;;;;;;5005672;27;95289;-69
2022/07/27 06:19:01;;;;;;;61.33;50.25;;;23.50;55.30;;;;;;4980380;27;102365;-69
2022/07/27 06:21:27;;;;;;;60.85;50.08;;;23.50;55.40;;;;;;4999728;27;97316;-69
2022/07/27 06:23:55;;;;;;;60.58;50.22;;;23.50;55.30;;;;;;5000564;27;95768;-69
2022/07/27 06:26:21;;;;;;;61.45;50.45;;;23.50;55.20;;;;;;4980023;27;97877;-69
2022/07/27 06:28:46;;;;;;;64.93;50.58;;;23.50;55.20;;;;;;5003957;27;96152;-69
2022/07/27 06:31:12;;;;;;;62.72;50.83;;;23.50;55.30;;;;;;4979857;27;96730;-69
2022/07/27 06:33:38;;;;;;;62.75;50.75;;;23.60;55.30;;;;;;4984019;27;96399;-69
2022/07/27 06:36:04;;;;;;;61.60;50.63;;;23.60;55.30;;;;;;5012524;27;98077;-69
2022/07/27 06:38:30;;;;;;;62.00;50.47;;;23.50;55.10;;;;;;4988630;27;95147;-69
2022/07/27 06:40:57;;;;;;;61.83;50.38;;;23.50;55.00;;;;;;4997954;27;94722;-69
2022/07/27 06:43:29;;;;;;;60.67;50.03;;;23.60;54.80;;;;;;4999210;27;98491;-69
2022/07/27 06:45:57;;;;;;;63.42;50.45;;;23.60;54.80;;;;;;4997491;27;95573;-69
2022/07/27 06:48:23;;;;;;;61.15;50.17;;;23.60;54.70;;;;;;5003648;27;95320;-69
2022/07/27 06:50:49;;;;;;;61.63;50.58;;;23.60;54.80;;;;;;5002066;27;97210;-69
2022/07/27 06:53:16;;;;;;;59.35;49.75;;;23.60;54.70;;;;;;4987338;27;96833;-69
2022/07/27 06:55:42;;;;;;;61.30;50.15;;;23.60;54.60;;;;;;4985290;28;97946;-69
2022/07/27 06:58:07;;;;;;;61.45;50.10;;;23.60;54.60;;;;;;4986995;27;97456;-69
2022/07/27 07:00:33;;;;;;;60.58;49.95;;;23.60;54.50;;;;;;5010628;27;95378;-69
2022/07/27 07:03:04;;;;;;;60.13;49.90;;;23.70;54.60;;;;;;5016779;27;95749;-69
2022/07/27 07:05:31;;;;;;;61.63;50.13;;;23.70;54.70;;;;;;5012799;27;95383;-69
2022/07/27 07:07:57;;;;;;;60.30;50.28;;;23.70;54.60;;;;;;4987499;27;101792;-69
2022/07/27 07:10:24;;;;;;;59.97;49.97;;;23.70;54.60;;;;;;4988474;27;95262;-69
2022/07/27 07:12:54;;;;;;;62.78;50.35;;;23.70;54.90;;;;;;4994214;27;95781;-68
2022/07/27 07:15:25;;;;;;;62.53;50.13;;;23.70;53.90;;;;;;4990728;27;96471;-69
2022/07/27 07:17:51;;;;;;;62.75;49.78;;;23.70;53.50;;;;;;4978665;27;97605;-68
2022/07/27 07:20:16;;;;;;;61.58;50.17;;;23.70;52.90;;;;;;4986522;27;98539;-69
2022/07/27 07:22:42;;;;;;;60.80;49.70;;;23.70;52.90;;;;;;4998528;27;95858;-69
2022/07/27 07:25:08;;;;;;;61.30;49.75;;;23.70;52.90;;;;;;5000115;27;96660;-69
2022/07/27 07:27:34;;;;;;;60.03;49.72;;;23.70;52.50;;;;;;5000117;27;96960;-69
2022/07/27 07:30:00;;;;;;;60.05;49.45;;;23.70;52.90;;;;;;4983421;27;95572;-69
2022/07/27 07:32:26;;;;;;;58.78;49.60;;;23.70;52.00;;;;;;4987843;27;98610;-69
2022/07/27 07:34:52;;;;;;;58.53;49.40;;;23.70;51.80;;;;;;4990307;27;96722;-69
2022/07/27 07:37:19;;;;;;;58.92;49.65;;;23.80;51.70;;;;;;4992289;27;95069;-68
2022/07/27 07:39:45;;;;;;;61.22;49.58;;;23.70;51.60;;;;;;5001265;27;96273;-68
2022/07/27 07:42:15;;;;;;;59.45;49.55;;;23.80;51.50;;;;;;4984705;27;94897;-69
2022/07/27 07:44:41;;;;;;;61.03;49.75;;;23.80;51.40;;;;;;4986537;27;98639;-69
2022/07/27 07:47:06;;;;;;;60.20;49.72;;;23.80;51.50;;;;;;4982685;27;96931;-69
2022/07/27 07:49:32;;;;;;;61.10;49.92;;;23.80;51.30;;;;;;4989855;27;96557;-69
2022/07/27 07:51:57;;;;;;;60.58;49.88;;;23.80;51.40;;;;;;5010899;27;96416;-69
2022/07/27 07:54:23;;;;;;;59.75;49.75;;;23.80;51.30;;;;;;4988632;27;100882;-69
2022/07/27 07:56:49;;;;;;;59.90;49.75;;;23.80;51.20;;;;;;5009225;27;94407;-69
2022/07/27 07:59:14;;;;;;;60.85;49.97;;;23.80;51.10;;;;;;4988140;27;98513;-69
2022/07/27 08:01:40;;;;;;;60.03;49.78;;;23.80;50.50;;;;;;5009166;27;95589;-69
2022/07/27 08:04:06;;;;;;;59.13;49.80;;;23.80;51.10;;;;;;5006687;27;96106;-68
2022/07/27 08:06:31;;;;;;;60.63;49.83;;;23.80;51.10;;;;;;4972278;27;95998;-69
2022/07/27 08:08:57;;;;;;;59.28;49.67;;;23.80;51.10;;;;;;4976264;27;96433;-68
2022/07/27 08:11:23;;;;;;;60.28;50.03;;;23.80;51.00;;;;;;4980483;27;98894;-69
2022/07/27 08:13:49;;;;;;;59.45;49.55;;;23.90;50.70;;;;;;4999862;27;98296;-69
2022/07/27 08:16:15;;;;;;;60.10;49.85;;;23.80;50.90;;;;;;5002402;27;95610;-68
2022/07/27 08:18:40;;;;;;;62.28;49.97;;;23.80;50.90;;;;;;4993248;27;100314;-68
2022/07/27 08:21:06;;;;;;;61.17;49.85;;;23.90;50.90;;;;;;4988743;27;94572;-68
2022/07/27 08:23:32;;;;;;;61.17;50.00;;;24.00;50.80;;;;;;4995358;27;97464;-68
2022/07/27 08:25:58;;;;;;;60.58;50.15;;;24.00;50.70;;;;;;4992204;27;95751;-68
2022/07/27 08:28:23;;;;;;;60.25;49.85;;;24.00;50.40;;;;;;4989541;27;97347;-68
2022/07/27 08:30:49;;;;;;;59.15;49.65;;;24.00;50.20;;;;;;4994149;27;99578;-68
2022/07/27 08:33:15;;;;;;;60.40;50.15;;;24.10;50.00;;;;;;4998653;27;95521;-68
2022/07/27 08:35:41;;;;;;;59.90;49.90;;;24.10;49.90;;;;;;4964911;27;96573;-68
2022/07/27 08:38:08;;;;;;;59.97;49.85;;;24.20;49.70;;;;;;4997907;27;96493;-68
2022/07/27 08:40:35;;;;;;;62.45;50.10;;;24.30;49.60;;;;;;4997065;27;95063;-68
2022/07/27 08:43:02;;;;;;;59.97;50.17;;;24.40;49.50;;;;;;4987967;27;96334;-68
2022/07/27 08:45:29;;;;;;;62.40;50.00;;;24.40;49.30;;;;;;4983413;27;95200;-67
2022/07/27 08:47:55;;;;;;;60.15;49.88;;;24.40;49.40;;;;;;4997799;27;95918;-68
2022/07/27 08:50:22;;;;;;;59.72;49.75;;;24.30;49.40;;;;;;4972014;28;103176;-68
2022/07/27 08:52:59;;;;;;;60.78;50.05;;;24.40;49.40;;;;;;4993693;27;100165;-68
2022/07/27 08:55:27;;;;;;;60.08;49.90;;;24.40;49.50;;;;;;4994409;27;97287;-68
2022/07/27 08:58:06;;;;;;;60.47;49.97;;;24.30;49.70;;;;;;4977276;28;84082;-57
2022/07/27 09:00:34;;;;;;;59.40;50.13;;;24.10;50.10;;;;;;4952435;28;85709;-58
2022/07/27 09:03:01;;;;;;;60.42;50.28;;;24.10;50.20;;;;;;4947283;27;88405;-50
2022/07/27 09:05:28;;;;;;;60.83;50.10;;;24.20;50.20;;;;;;4952624;28;88444;-55
2022/07/27 09:07:54;;;;;;;61.08;50.05;;;24.10;50.10;;;;;;4948164;28;86277;-55
2022/07/27 09:10:34;;;;;;;62.08;50.35;;;24.20;50.10;;;;;;4951898;27;87178;-56
2022/07/27 09:13:25;;;;;;;61.03;50.17;;;24.10;50.10;;;;;;4954443;28;90203;-58
2022/07/27 09:16:02;;;;;;;59.27;49.87;;;24.20;50.10;;;;;;4950038;28;88575;-54
2022/07/27 09:18:29;;;;;;;62.22;50.15;;;24.30;49.80;;;;;;4966376;28;85693;-55
2022/07/27 09:21:09;;;;;;;61.42;50.30;;;24.30;49.70;;;;;;4941664;28;93677;-54
2022/07/27 09:23:35;;;;;;;60.08;50.15;;;24.30;49.90;;;;;;4951975;28;90099;-59
2022/07/27 09:26:15;;;;;;;59.80;49.92;;;24.20;50.00;;;;;;4950431;28;88833;-55
2022/07/27 09:28:42;;;;;;;61.58;50.45;;;24.20;50.10;;;;;;4944658;28;90878;-57
2022/07/27 09:31:10;;;;;;;61.97;50.05;;;24.20;50.10;;;;;;4949573;28;88371;-48
2022/07/27 09:33:50;;;;;;;64.53;50.22;;;24.40;50.90;;;;;;4952527;28;85402;-53
2022/07/27 09:36:18;;;;;;;65.13;50.25;;;24.50;50.40;;;;;;4951050;28;86537;-51
2022/07/27 09:39:05;;;;;;;61.88;50.15;;;24.50;50.30;;;;;;4947736;28;85158;-55
2022/07/27 09:41:46;;;;;;;64.35;50.33;;;24.50;50.40;;;;;;4935384;28;88041;-51
2022/07/27 09:44:12;;;;;;;62.17;50.15;;;24.70;50.60;;;;;;4947682;28;90698;-51
2022/07/27 09:46:40;;;;;;;62.17;50.22;;;24.70;50.50;;;;;;4962230;28;85925;-54
2022/07/27 09:49:28;;;;;;;68.53;50.25;;;24.60;50.60;;;;;;4955479;27;85927;-51
2022/07/27 09:51:55;;;;;;;64.65;50.22;;;24.60;50.70;;;;;;4951313;28;86559;-50
2022/07/27 09:54:22;;;;;;;65.35;50.33;;;24.60;50.70;;;;;;4969828;28;88074;-52
2022/07/27 09:57:01;;;;;;;63.30;50.22;;;24.60;51.30;;;;;;4948287;28;85738;-52
2022/07/27 09:59:28;;;;;;;60.25;50.35;;;24.60;50.90;;;;;;4945489;28;87593;-51
2022/07/27 10:01:55;;;;;;;60.38;50.33;;;24.60;50.80;;;;;;4947833;28;85515;-55
2022/07/27 10:04:21;;;;;;;59.97;50.15;;;24.70;50.80;;;;;;4945620;28;89680;-56
2022/07/27 10:06:47;;;;;;;61.03;50.17;;;24.70;50.70;;;;;;4951413;28;90140;-55
2022/07/27 10:09:13;;;;;;;60.75;50.08;;;24.70;51.20;;;;;;4942327;28;89895;-53
2022/07/27 10:11:39;;;;;;;61.70;50.63;;;24.70;50.60;;;;;;4933741;28;86175;-56
2022/07/27 10:14:05;;;;;;;60.20;50.13;;;24.70;50.70;;;;;;4938675;28;86131;-55
2022/07/27 10:16:33;;;;;;;60.28;50.47;;;24.70;50.70;;;;;;4931219;28;90239;-56
2022/07/27 10:19:12;;;;;;;60.58;50.13;;;24.70;50.90;;;;;;4931463;28;88024;-54
2022/07/27 10:21:44;;;;;;;61.80;50.25;;;24.70;50.90;;;;;;4917986;28;91041;-55
2022/07/27 10:24:22;;;;;;;60.78;50.20;;;24.80;51.00;;;;;;4932047;28;85650;-53
2022/07/27 10:26:47;;;;;;;60.58;50.05;;;24.80;50.90;;;;;;4924385;28;85470;-54
2022/07/27 10:29:13;;;;;;;60.42;50.42;;;24.80;51.00;;;;;;4940596;28;89858;-48
2022/07/27 10:31:41;;;;;;;60.95;50.55;;;24.80;51.00;;;;;;4938018;28;85640;-51
2022/07/27 10:34:10;;;;;;;61.95;50.58;;;24.80;51.10;;;;;;4939498;28;85948;-53
2022/07/27 10:36:47;;;;;;;60.60;50.35;;;24.80;51.00;;;;;;4930667;28;86386;-55
2022/07/27 10:39:32;;;;;;;61.42;50.20;;;24.80;51.10;;;;;;4921855;28;88165;-54
2022/07/27 10:42:17;;;;;;;62.22;50.38;;;24.80;51.20;;;;;;4931837;28;86024;-50
2022/07/27 10:45:09;;;;;;;60.10;50.17;;;24.80;51.20;;;;;;4933311;28;86827;-54
2022/07/27 10:47:37;;;;;;;61.03;50.45;;;24.80;51.30;;;;;;4928722;28;85077;-52
2022/07/27 10:50:29;;;;;;;60.75;50.45;;;24.80;51.20;;;;;;4955578;28;85571;-55
2022/07/27 10:53:03;;;;;;;60.38;50.17;;;24.80;51.10;;;;;;4929907;28;86390;-55
2022/07/27 10:55:30;;;;;;;62.25;50.22;;;24.90;51.10;;;;;;4937199;28;85584;-54
2022/07/27 10:57:56;;;;;;;63.45;50.35;;;24.80;51.10;;;;;;4926662;28;88707;-52
2022/07/27 11:00:47;;;;;;;60.67;50.15;;;24.80;51.00;;;;;;4917029;28;89973;-53
2022/07/27 11:03:27;;;;;;;60.28;50.22;;;24.80;51.10;;;;;;4934027;28;85535;-55
2022/07/27 11:06:02;;;;;;;61.08;50.42;;;24.80;51.10;;;;;;4932564;28;91807;-47
2022/07/27 11:08:30;;;;;;;60.60;50.35;;;24.80;51.20;;;;;;4935688;28;87611;-50
2022/07/27 11:10:57;;;;;;;60.47;50.33;;;24.90;51.20;;;;;;4921359;28;85736;-54
2022/07/27 11:13:24;;;;;;;60.88;50.15;;;24.80;51.20;;;;;;4931581;28;91966;-50
2022/07/27 11:16:01;;;;;;;60.35;50.28;;;24.80;51.20;;;;;;4942881;28;86916;-52
2022/07/27 11:18:30;;;;;;;59.78;50.22;;;24.80;51.40;;;;;;4934475;28;91669;-52
2022/07/27 11:21:17;;;;;;;61.47;50.35;;;24.80;51.50;;;;;;4932560;28;85288;-50
2022/07/27 11:23:44;;;;;;;59.97;50.33;;;24.70;51.50;;;;;;4920246;28;91357;-54
2022/07/27 11:26:10;;;;;;;60.92;50.28;;;24.80;51.50;;;;;;4925888;28;86675;-55
2022/07/27 11:28:37;;;;;;;60.05;50.15;;;24.80;51.40;;;;;;4936072;28;87522;-54
2022/07/27 11:31:04;;;;;;;60.25;50.33;;;24.80;51.30;;;;;;4928554;28;86746;-47
2022/07/27 11:33:31;;;;;;;62.50;50.13;;;24.90;51.00;;;;;;4928221;28;91413;-51
2022/07/27 11:35:59;;;;;;;63.50;50.25;;;24.90;49.20;;;;;;4914510;28;88780;-46
2022/07/27 11:38:25;;;;;;;61.22;50.17;;;24.80;48.00;;;;;;4929427;28;88885;-47
2022/07/27 11:40:53;;;;;;;61.83;50.25;;;24.80;45.40;;;;;;4934259;28;85940;-51
2022/07/27 11:43:38;;;;;;;59.92;49.97;;;24.60;45.40;;;;;;4934288;28;91095;-48
2022/07/27 11:46:19;;;;;;;64.25;50.33;;;24.60;45.90;;;;;;4936815;28;90118;-45
2022/07/27 11:48:49;;;;;;;60.63;50.15;;;24.70;44.00;;;;;;4936428;28;90157;-50
2022/07/27 11:51:16;;;;;;;60.25;50.22;;;24.70;44.30;;;;;;4922144;28;89094;-41
2022/07/27 11:53:41;;;;;;;61.17;50.25;;;24.60;43.90;;;;;;4918960;28;88672;-46
2022/07/27 11:56:07;;;;;;;64.07;50.05;;;24.50;45.80;;;;;;4927008;28;85684;-44
2022/07/27 11:58:51;;;;;;;59.97;50.25;;;24.70;43.50;;;;;;4929352;28;89621;-43
2022/07/27 12:01:32;;;;;;;60.28;50.10;;;24.80;43.90;;;;;;4929208;28;85206;-45
2022/07/27 12:04:14;;;;;;;61.20;50.17;;;24.80;43.60;;;;;;4929520;28;86059;-41
2022/07/27 12:06:43;;;;;;;65.32;50.33;;;24.80;44.80;;;;;;4931181;28;85781;-45
2022/07/27 12:09:12;;;;;;;62.95;50.65;;;24.90;44.30;;;;;;4918887;28;88369;-42
2022/07/27 12:11:46;;;;;;;63.45;50.75;;;25.00;44.80;;;;;;4927974;28;91148;-47
2022/07/27 12:14:14;;;;;;;62.00;50.53;;;25.00;44.10;;;;;;4934432;28;86248;-46
2022/07/27 12:16:40;;;;;;;60.28;50.30;;;25.00;45.00;;;;;;4925109;28;90601;-48
2022/07/27 12:19:07;;;;;;;60.85;50.33;;;25.00;43.70;;;;;;4923136;28;85508;-46
2022/07/27 12:21:32;;;;;;;63.42;50.60;;;25.00;43.60;;;;;;4926026;28;87073;-44
2022/07/27 12:23:58;;;;;;;60.78;50.45;;;24.90;44.20;;;;;;4922169;28;86620;-48
2022/07/27 12:26:24;;;;;;;60.53;50.33;;;24.80;42.50;;;;;;4920895;28;88298;-43
2022/07/27 12:29:10;;;;;;;61.70;50.42;;;24.80;41.30;;;;;;4922411;28;88125;-54
2022/07/27 12:31:45;;;;;;;62.83;50.47;;;24.90;40.70;;;;;;4922952;28;88860;-44
2022/07/27 12:34:13;;;;;;;61.08;50.25;;;24.90;42.50;;;;;;4932517;28;87664;-43